createdAt,value
2018-12-13T00:01:24.578Z,-13.00
2018-12-13T00:03:59.961Z,-13.20
2018-12-13T00:06:36.547Z,-13.30
2018-12-13T00:09:11.074Z,-13.20
2018-12-13T00:11:46.049Z,-13.20
2018-12-13T00:14:21.149Z,-13.20
2018-12-13T00:16:56.403Z,-13.00
2018-12-13T00:19:31.521Z,-12.70
2018-12-13T00:22:07.236Z,-12.70
2018-12-13T00:24:41.632Z,-12.70
2018-12-13T00:27:16.597Z,-12.80
2018-12-13T00:29:51.886Z,-12.90
2018-12-13T00:32:27.002Z,-13.00
2018-12-13T00:35:02.123Z,-12.90
2018-12-13T00:37:37.087Z,-13.00
2018-12-13T00:40:12.029Z,-13.10
2018-12-13T00:42:47.858Z,-13.10
2018-12-13T00:45:23.090Z,-13.10
2018-12-13T00:47:57.773Z,-13.00
2018-12-13T00:50:33.043Z,-13.00
2018-12-13T00:53:05.649Z,-13.00
2018-12-13T00:55:40.849Z,-13.00
2018-12-13T00:58:16.357Z,-13.10
2018-12-13T01:00:56.842Z,-12.90
2018-12-13T01:03:32.602Z,-12.90
2018-12-13T01:06:07.396Z,-13.10
2018-12-13T01:08:42.882Z,-13.20
2018-12-13T01:11:17.946Z,-13.20
2018-12-13T01:13:52.770Z,-13.00
2018-12-13T01:16:28.818Z,-13.00
2018-12-13T01:19:04.929Z,-12.90
2018-12-13T01:21:39.253Z,-13.00
2018-12-13T01:24:16.025Z,-13.20
2018-12-13T01:26:51.014Z,-13.40
2018-12-13T01:29:25.609Z,-13.50
2018-12-13T01:32:00.634Z,-13.40
2018-12-13T01:34:35.421Z,-13.30
2018-12-13T01:37:10.731Z,-13.20
2018-12-13T01:39:45.526Z,-13.30
2018-12-13T01:42:20.584Z,-13.40
2018-12-13T01:44:55.248Z,-13.50
2018-12-13T01:47:30.308Z,-13.50
2018-12-13T01:50:04.574Z,-13.60
2018-12-13T01:52:39.523Z,-13.60
2018-12-13T01:55:14.755Z,-13.60
2018-12-13T01:57:49.758Z,-13.70
2018-12-13T02:00:25.164Z,-13.80
2018-12-13T02:02:59.754Z,-13.90
2018-12-13T02:05:34.911Z,-14.00
2018-12-13T02:08:09.886Z,-14.10
2018-12-13T02:10:46.503Z,-14.10
2018-12-13T02:13:21.002Z,-14.10
2018-12-13T02:15:56.291Z,-14.20
2018-12-13T02:18:31.693Z,-14.10
2018-12-13T02:21:06.641Z,-14.20
2018-12-13T02:23:43.665Z,-14.20
2018-12-13T02:26:25.265Z,-14.30
2018-12-13T02:29:01.677Z,-14.30
2018-12-13T02:31:36.150Z,-14.30
2018-12-13T02:34:11.464Z,-14.40
2018-12-13T02:36:47.850Z,-14.40
2018-12-13T02:39:23.120Z,-14.50
2018-12-13T02:41:58.946Z,-14.50
2018-12-13T02:44:34.032Z,-14.60
2018-12-13T02:47:08.280Z,-14.60
2018-12-13T02:49:44.954Z,-14.60
2018-12-13T02:52:20.242Z,-14.70
2018-12-13T02:54:55.134Z,-14.70
2018-12-13T02:57:30.091Z,-14.60
2018-12-13T03:00:06.458Z,-14.60
2018-12-13T03:02:40.918Z,-14.50
2018-12-13T03:05:15.735Z,-14.30
2018-12-13T03:07:52.298Z,-14.30
2018-12-13T03:10:25.559Z,-14.40
2018-12-13T03:13:02.383Z,-14.30
2018-12-13T03:15:36.605Z,-14.20
2018-12-13T03:18:11.933Z,-14.20
2018-12-13T03:20:48.518Z,-14.20
2018-12-13T03:23:24.306Z,-14.20
2018-12-13T03:29:15.693Z,-14.10
2018-12-13T03:31:50.963Z,-14.10
2018-12-13T03:34:26.163Z,-14.10
2018-12-13T03:37:01.655Z,-14.10
2018-12-13T03:39:38.610Z,-14.20
2018-12-13T03:42:13.780Z,-14.20
2018-12-13T03:44:48.523Z,-14.30
2018-12-13T03:47:23.719Z,-14.30
2018-12-13T03:49:58.673Z,-14.30
2018-12-13T03:52:32.996Z,-14.30
2018-12-13T03:55:07.897Z,-14.30
2018-12-13T03:57:42.930Z,-14.30
2018-12-13T04:00:18.525Z,-14.30
2018-12-13T04:02:53.434Z,-14.30
2018-12-13T04:05:28.378Z,-14.40
2018-12-13T04:08:03.826Z,-14.40
2018-12-13T04:10:38.530Z,-14.50
2018-12-13T04:13:13.278Z,-14.60
2018-12-13T04:15:48.713Z,-14.60
2018-12-13T04:18:23.378Z,-14.60
2018-12-13T04:20:58.286Z,-14.60
2018-12-13T04:23:33.464Z,-14.70
2018-12-13T04:26:08.890Z,-14.70
2018-12-13T04:28:45.293Z,-14.60
2018-12-13T04:31:18.405Z,-14.70
2018-12-13T04:33:53.441Z,-14.80
2018-12-13T04:36:27.866Z,-14.80
2018-12-13T04:39:03.159Z,-14.80
2018-12-13T04:41:40.169Z,-14.80
2018-12-13T04:44:15.367Z,-14.70
2018-12-13T04:46:50.559Z,-14.70
2018-12-13T04:49:25.493Z,-14.80
2018-12-13T04:52:00.421Z,-14.70
2018-12-13T04:54:35.720Z,-14.70
2018-12-13T04:57:10.638Z,-14.70
2018-12-13T04:59:47.098Z,-14.80
2018-12-13T05:02:22.227Z,-14.80
2018-12-13T05:04:57.186Z,-14.80
2018-12-13T05:07:31.633Z,-14.80
2018-12-13T05:10:08.726Z,-14.90
2018-12-13T05:12:45.772Z,-14.90
2018-12-13T05:15:18.309Z,-15.10
2018-12-13T05:17:52.737Z,-15.10
2018-12-13T05:20:27.903Z,-15.00
2018-12-13T05:23:04.007Z,-15.00
2018-12-13T05:25:38.503Z,-15.00
2018-12-13T05:28:13.277Z,-14.90
2018-12-13T05:30:47.609Z,-15.00
2018-12-13T05:33:24.250Z,-15.00
2018-12-13T05:36:01.222Z,-15.00
2018-12-13T05:38:36.299Z,-14.90
2018-12-13T05:41:11.485Z,-15.00
2018-12-13T05:43:49.067Z,-15.00
2018-12-13T05:46:23.982Z,-15.00
2018-12-13T05:48:58.682Z,-15.10
2018-12-13T05:51:33.860Z,-15.20
2018-12-13T05:54:09.010Z,-15.20
2018-12-13T05:56:43.825Z,-15.30
2018-12-13T05:59:18.639Z,-15.30
2018-12-13T06:01:53.444Z,-15.30
2018-12-13T06:04:28.544Z,-15.40
2018-12-13T06:07:11.200Z,-15.40
2018-12-13T06:09:45.477Z,-15.50
2018-12-13T06:12:20.562Z,-15.50
2018-12-13T06:14:55.444Z,-15.60
2018-12-13T06:17:31.917Z,-15.50
2018-12-13T06:20:08.107Z,-15.40
2018-12-13T06:22:43.210Z,-15.30
2018-12-13T06:25:20.130Z,-15.30
2018-12-13T06:27:55.291Z,-15.30
2018-12-13T06:30:30.321Z,-15.20
2018-12-13T06:33:05.380Z,-15.20
2018-12-13T06:35:40.642Z,-15.20
2018-12-13T06:38:15.860Z,-15.20
2018-12-13T06:40:50.777Z,-15.10
2018-12-13T06:43:25.865Z,-15.10
2018-12-13T06:46:00.273Z,-15.10
2018-12-13T06:48:35.473Z,-15.20
2018-12-13T06:51:09.753Z,-15.20
2018-12-13T06:53:45.112Z,-15.10
2018-12-13T06:56:20.411Z,-15.10
2018-12-13T06:58:55.350Z,-15.00
2018-12-13T07:01:29.677Z,-15.00
2018-12-13T07:04:03.911Z,-15.00
2018-12-13T07:06:38.955Z,-15.00
2018-12-13T07:09:14.165Z,-15.10
2018-12-13T07:11:49.113Z,-15.10
2018-12-13T07:14:24.530Z,-15.20
2018-12-13T07:17:01.034Z,-15.20
2018-12-13T07:19:36.237Z,-15.20
2018-12-13T07:22:11.414Z,-15.10
2018-12-13T07:24:46.612Z,-15.10
2018-12-13T07:27:23.425Z,-15.00
2018-12-13T07:29:58.093Z,-15.00
2018-12-13T07:32:32.909Z,-15.00
2018-12-13T07:35:08.629Z,-15.10
2018-12-13T07:37:43.654Z,-15.00
2018-12-13T07:40:18.333Z,-15.10
2018-12-13T07:42:52.693Z,-15.20
2018-12-13T07:45:28.475Z,-15.10
2018-12-13T07:48:02.912Z,-15.20
2018-12-13T07:50:39.925Z,-15.30
2018-12-13T07:53:14.622Z,-15.30
2018-12-13T07:55:49.786Z,-15.40
2018-12-13T07:58:24.974Z,-15.60
2018-12-13T08:00:59.070Z,-15.60
2018-12-13T08:03:35.357Z,-15.80
2018-12-13T08:06:12.072Z,-15.90
2018-12-13T08:08:46.620Z,-16.00
2018-12-13T08:11:23.405Z,-16.00
2018-12-13T08:13:58.028Z,-16.10
2018-12-13T08:16:32.900Z,-16.10
2018-12-13T08:19:08.146Z,-16.10
2018-12-13T08:21:43.680Z,-16.30
2018-12-13T08:24:18.164Z,-16.60
2018-12-13T08:26:53.149Z,-16.70
2018-12-13T08:29:28.375Z,-16.70
2018-12-13T08:32:03.454Z,-16.70
2018-12-13T08:34:40.290Z,-16.90
2018-12-13T08:42:14.725Z,-16.80
2018-12-13T08:44:49.097Z,-16.60
2018-12-13T08:47:24.083Z,-16.50
2018-12-13T08:49:59.425Z,-16.20
2018-12-13T08:52:34.826Z,-16.00
2018-12-13T08:55:09.657Z,-15.90
2018-12-13T08:57:47.140Z,-15.60
2018-12-13T09:00:21.958Z,-15.50
2018-12-13T09:02:56.903Z,-15.20
2018-12-13T09:05:34.161Z,-15.10
2018-12-13T09:08:09.042Z,-14.90
2018-12-13T09:10:45.995Z,-14.90
2018-12-13T09:13:20.558Z,-14.80
2018-12-13T09:15:55.157Z,-14.60
2018-12-13T09:18:31.617Z,-14.50
2018-12-13T09:21:08.621Z,-14.60
2018-12-13T09:23:43.854Z,-14.60
2018-12-13T09:26:20.597Z,-14.50
2018-12-13T09:28:55.818Z,-14.50
2018-12-13T09:31:30.749Z,-14.60
2018-12-13T09:34:05.576Z,-14.60
2018-12-13T09:36:42.194Z,-14.60
2018-12-13T09:39:17.357Z,-14.70
2018-12-13T09:46:57.101Z,-14.90
2018-12-13T09:49:33.799Z,-14.80
2018-12-13T09:52:10.809Z,-14.90
2018-12-13T09:54:45.962Z,-14.90
2018-12-13T09:57:20.926Z,-14.80
2018-12-13T09:59:55.201Z,-14.80
2018-12-13T10:02:30.245Z,-14.80
2018-12-13T10:05:05.506Z,-14.80
2018-12-13T10:07:40.209Z,-14.80
2018-12-13T10:10:17.148Z,-14.80
2018-12-13T10:12:52.506Z,-14.90
2018-12-13T10:15:32.029Z,-14.90
2018-12-13T10:18:04.330Z,-14.90
2018-12-13T10:20:39.333Z,-14.90
2018-12-13T10:23:13.770Z,-14.90
2018-12-13T10:25:48.658Z,-14.90
2018-12-13T10:28:24.134Z,-14.90
2018-12-13T10:31:00.662Z,-14.90
2018-12-13T10:33:35.994Z,-15.00
2018-12-13T10:36:11.245Z,-15.00
2018-12-13T10:38:45.939Z,-14.90
2018-12-13T10:41:28.689Z,-15.00
2018-12-13T10:44:03.494Z,-15.00
2018-12-13T10:51:42.742Z,-15.00
2018-12-13T10:54:17.577Z,-15.00
2018-12-13T10:56:53.305Z,-15.00
2018-12-13T10:59:28.437Z,-15.10
2018-12-13T11:02:10.290Z,-15.10
2018-12-13T11:04:45.626Z,-15.10
2018-12-13T11:07:18.421Z,-15.20
2018-12-13T11:09:53.528Z,-15.10
2018-12-13T11:12:29.986Z,-15.10
2018-12-13T11:15:04.613Z,-15.10
2018-12-13T11:17:39.997Z,-15.10
2018-12-13T11:20:14.989Z,-15.00
2018-12-13T11:22:49.529Z,-15.10
2018-12-13T11:25:24.634Z,-15.10
2018-12-13T11:28:34.735Z,-15.10
2018-12-13T11:31:09.265Z,-15.10
2018-12-13T11:33:46.122Z,-15.10
2018-12-13T11:36:20.661Z,-15.10
2018-12-13T11:38:55.556Z,-15.00
2018-12-13T11:41:30.181Z,-15.00
2018-12-13T11:44:05.229Z,-15.00
2018-12-13T11:46:40.130Z,-15.10
2018-12-13T11:49:15.418Z,-15.10
2018-12-13T11:51:50.341Z,-15.10
2018-12-13T11:56:54.299Z,-15.00
2018-12-13T11:59:29.365Z,-15.00
2018-12-13T12:02:06.650Z,-15.00
2018-12-13T12:04:41.797Z,-15.10
2018-12-13T12:07:17.261Z,-15.10
2018-12-13T12:09:51.743Z,-15.00
2018-12-13T12:12:28.825Z,-15.10
2018-12-13T12:15:03.925Z,-15.10
2018-12-13T12:17:38.829Z,-15.20
2018-12-13T12:20:14.793Z,-15.20
2018-12-13T12:22:51.093Z,-15.20
2018-12-13T12:25:28.053Z,-15.20
2018-12-13T12:28:02.401Z,-15.20
2018-12-13T12:30:37.794Z,-15.20
2018-12-13T12:33:12.871Z,-15.30
2018-12-13T12:35:48.057Z,-15.20
2018-12-13T12:38:22.494Z,-15.30
2018-12-13T12:40:57.339Z,-15.40
2018-12-13T12:43:32.257Z,-15.40
2018-12-13T12:46:07.775Z,-15.40
2018-12-13T12:48:42.350Z,-15.30
2018-12-13T12:51:18.865Z,-15.30
2018-12-13T12:53:53.821Z,-15.30
2018-12-13T12:56:28.281Z,-15.30
2018-12-13T13:06:40.298Z,-15.30
2018-12-13T13:09:15.218Z,-15.20
2018-12-13T13:11:50.149Z,-15.20
2018-12-13T13:14:25.279Z,-15.10
2018-12-13T13:17:07.345Z,-15.10
2018-12-13T13:19:49.042Z,-15.00
2018-12-13T13:22:23.615Z,-14.90
2018-12-13T13:24:58.970Z,-14.90
2018-12-13T13:27:34.101Z,-14.80
2018-12-13T13:30:11.021Z,-14.80
2018-12-13T13:32:46.484Z,-14.70
2018-12-13T13:35:21.273Z,-14.70
2018-12-13T13:37:55.617Z,-14.60
2018-12-13T13:40:30.371Z,-14.60
2018-12-13T13:43:05.242Z,-14.50
2018-12-13T13:45:40.233Z,-14.40
2018-12-13T13:48:15.457Z,-14.30
2018-12-13T13:50:50.439Z,-14.30
2018-12-13T13:53:24.852Z,-14.30
2018-12-13T13:56:13.461Z,-14.10
2018-12-13T13:58:55.530Z,-14.10
2018-12-13T14:01:41.303Z,-14.00
2018-12-13T14:04:16.072Z,-13.90
2018-12-13T14:06:52.342Z,-13.80
2018-12-13T14:09:44.365Z,-13.70
2018-12-13T14:12:19.659Z,-13.70
2018-12-13T14:14:54.663Z,-13.50
2018-12-13T14:17:29.674Z,-13.40
2018-12-13T14:20:04.402Z,-13.30
2018-12-13T14:22:39.573Z,-13.10
2018-12-13T14:25:14.458Z,-13.10
2018-12-13T14:27:49.875Z,-13.00
2018-12-13T14:30:25.258Z,-12.90
2018-12-13T14:33:01.302Z,-12.80
2018-12-13T14:35:36.193Z,-12.80
2018-12-13T14:38:11.705Z,-12.70
2018-12-13T14:40:46.441Z,-12.70
2018-12-13T14:43:23.277Z,-12.60
2018-12-13T14:45:58.862Z,-12.60
2018-12-13T14:48:34.334Z,-12.50
2018-12-13T14:51:14.093Z,-12.40
2018-12-13T14:53:47.426Z,-12.30
2018-12-13T14:56:22.335Z,-12.10
2018-12-13T14:58:59.113Z,-12.20
2018-12-13T15:01:31.564Z,-12.20
2018-12-13T15:04:06.697Z,-12.00
2018-12-13T15:06:40.917Z,-11.90
2018-12-13T15:09:16.318Z,-11.80
2018-12-13T15:12:00.543Z,-11.80
2018-12-13T15:14:36.589Z,-11.70
2018-12-13T15:17:11.672Z,-11.60
2018-12-13T15:19:47.998Z,-11.50
2018-12-13T15:22:22.890Z,-11.40
2018-12-13T15:24:57.481Z,-11.30
2018-12-13T15:27:32.577Z,-11.40
2018-12-13T15:30:08.973Z,-11.30
2018-12-13T15:32:43.953Z,-11.20
2018-12-13T15:35:19.101Z,-11.30
2018-12-13T15:37:53.938Z,-11.20
2018-12-13T15:40:29.146Z,-11.10
2018-12-13T15:43:14.746Z,-11.20
2018-12-13T15:45:58.893Z,-11.00
2018-12-13T15:48:33.221Z,-10.90
2018-12-13T15:51:09.778Z,-10.90
2018-12-13T15:53:44.890Z,-10.90
2018-12-13T15:56:21.705Z,-11.00
2018-12-13T15:58:56.604Z,-10.70
2018-12-13T16:01:41.681Z,-10.40
2018-12-13T16:04:23.362Z,-10.60
2018-12-13T16:06:57.622Z,-10.20
2018-12-13T16:09:33.148Z,-9.70
2018-12-13T16:12:08.148Z,-9.50
2018-12-13T16:14:42.621Z,-9.60
2018-12-13T16:17:17.496Z,-9.50
2018-12-13T16:19:52.609Z,-9.80
2018-12-13T16:22:28.052Z,-9.70
2018-12-13T16:25:02.742Z,-9.70
2018-12-13T16:27:38.191Z,-9.50
2018-12-13T16:30:11.098Z,-9.70
2018-12-13T16:32:45.550Z,-9.60
2018-12-13T16:35:20.614Z,-9.20
2018-12-13T16:37:57.327Z,-9.20
2018-12-13T16:40:31.789Z,-9.40
2018-12-13T16:43:08.477Z,-9.40
2018-12-13T16:45:43.046Z,-9.10
2018-12-13T16:48:20.434Z,-9.00
2018-12-13T16:50:55.616Z,-9.10
2018-12-13T16:53:32.237Z,-9.00
2018-12-13T16:56:08.965Z,-9.00
2018-12-13T16:58:44.010Z,-8.40
2018-12-13T17:01:18.723Z,-8.20
2018-12-13T17:03:53.775Z,-8.40
2018-12-13T17:06:28.564Z,-8.20
2018-12-13T17:09:05.101Z,-7.80
2018-12-13T17:11:39.849Z,-8.30
2018-12-13T17:14:12.731Z,-8.30
2018-12-13T17:16:55.270Z,-8.50
2018-12-13T17:19:31.562Z,-8.20
2018-12-13T17:22:09.650Z,-8.00
2018-12-13T17:24:48.234Z,-8.10
2018-12-13T17:27:23.378Z,-8.00
2018-12-13T17:29:56.118Z,-7.60
2018-12-13T17:32:30.757Z,-7.30
2018-12-13T17:35:05.605Z,-7.20
2018-12-13T17:37:40.903Z,-7.30
2018-12-13T17:40:16.057Z,-7.10
2018-12-13T17:42:51.086Z,-7.30
2018-12-13T17:45:25.713Z,-7.50
2018-12-13T17:48:01.042Z,-7.40
2018-12-13T17:50:36.234Z,-7.30
2018-12-13T17:53:10.457Z,-6.90
2018-12-13T17:55:45.794Z,-7.20
2018-12-13T17:58:22.963Z,-7.00
2018-12-13T18:00:58.186Z,-7.00
2018-12-13T18:03:33.215Z,-7.00
2018-12-13T18:06:07.553Z,-7.00
2018-12-13T18:08:42.488Z,-7.00
2018-12-13T18:11:17.768Z,-7.10
2018-12-13T18:13:52.157Z,-7.10
2018-12-13T18:16:29.082Z,-7.30
2018-12-13T18:19:04.005Z,-7.40
2018-12-13T18:21:38.783Z,-7.40
2018-12-13T18:24:13.744Z,-7.30
2018-12-13T18:26:48.745Z,-7.50
2018-12-13T18:29:23.357Z,-7.50
2018-12-13T18:31:58.725Z,-7.50
2018-12-13T18:34:34.653Z,-7.40
2018-12-13T18:37:09.781Z,-7.60
2018-12-13T18:39:44.402Z,-7.40
2018-12-13T18:42:20.882Z,-7.40
2018-12-13T18:44:56.142Z,-7.40
2018-12-13T18:47:30.664Z,-7.40
2018-12-13T18:50:07.218Z,-7.20
2018-12-13T18:52:43.046Z,-7.10
2018-12-13T18:55:20.582Z,-7.10
2018-12-13T18:57:55.933Z,-7.40
2018-12-13T19:00:31.392Z,-7.40
2018-12-13T19:03:06.057Z,-7.20
2018-12-13T19:05:40.849Z,-7.20
2018-12-13T19:08:24.211Z,-7.50
2018-12-13T19:14:08.558Z,-7.70
2018-12-13T19:19:57.965Z,-7.40
2018-12-13T19:22:44.078Z,-7.50
2018-12-13T19:28:21.931Z,-7.20
2018-12-13T19:30:58.571Z,-7.20
2018-12-13T19:33:33.369Z,-7.20
2018-12-13T19:36:08.377Z,-7.30
2018-12-13T19:38:43.742Z,-7.30
2018-12-13T19:41:17.970Z,-7.20
2018-12-13T19:43:53.083Z,-7.10
2018-12-13T19:49:20.755Z,-7.20
2018-12-13T19:51:55.154Z,-7.40
2018-12-13T19:54:30.417Z,-7.30
2018-12-13T19:57:05.274Z,-7.40
2018-12-13T20:02:33.868Z,-7.50
2018-12-13T20:05:10.791Z,-7.60
2018-12-13T20:07:45.683Z,-7.50
2018-12-13T20:10:18.880Z,-7.60
2018-12-13T20:12:54.094Z,-7.60
2018-12-13T20:15:30.787Z,-7.70
2018-12-13T20:18:05.776Z,-7.70
2018-12-13T20:20:51.263Z,-7.70
2018-12-13T20:23:26.756Z,-7.80
2018-12-13T20:26:02.169Z,-7.90
2018-12-13T20:28:37.278Z,-8.00
2018-12-13T20:31:12.292Z,-8.00
2018-12-13T20:33:48.935Z,-8.20
2018-12-13T20:36:24.332Z,-8.20
2018-12-13T20:38:58.798Z,-8.20
2018-12-13T20:41:35.027Z,-8.20
2018-12-13T20:44:09.842Z,-8.10
2018-12-13T20:46:59.420Z,-8.20
2018-12-13T20:49:34.667Z,-8.40
2018-12-13T20:52:17.302Z,-8.40
2018-12-13T20:55:03.616Z,-8.40
2018-12-13T20:57:40.057Z,-8.40
2018-12-13T21:00:14.166Z,-8.40
2018-12-13T21:02:49.114Z,-8.50
2018-12-13T21:05:23.981Z,-8.50
2018-12-13T21:08:03.569Z,-8.50
2018-12-13T21:10:38.962Z,-8.50
2018-12-13T21:13:13.693Z,-8.50
2018-12-13T21:15:48.812Z,-8.50
2018-12-13T21:18:33.394Z,-8.60
2018-12-13T21:21:08.406Z,-8.70
2018-12-13T21:23:43.384Z,-8.70
2018-12-13T21:26:16.250Z,-8.70
2018-12-13T21:28:52.957Z,-8.70
2018-12-13T21:31:28.449Z,-8.70
2018-12-13T21:34:03.757Z,-8.70
2018-12-13T21:36:40.413Z,-8.70
2018-12-13T21:39:15.248Z,-8.70
2018-12-13T21:41:48.315Z,-8.70
2018-12-13T21:44:21.021Z,-8.70
2018-12-13T21:47:00.161Z,-8.60
2018-12-13T21:49:38.829Z,-8.60
2018-12-13T21:52:13.869Z,-8.60
2018-12-13T21:54:48.865Z,-8.60
2018-12-13T21:57:23.976Z,-8.50
2018-12-13T21:59:58.717Z,-8.50
2018-12-13T22:02:33.580Z,-8.60
2018-12-13T22:05:08.190Z,-8.60
2018-12-13T22:07:43.210Z,-8.60
2018-12-13T22:10:19.841Z,-8.60
2018-12-13T22:12:54.395Z,-8.50
2018-12-13T22:15:29.490Z,-8.50
2018-12-13T22:18:06.013Z,-8.50
2018-12-13T22:20:40.833Z,-8.40
2018-12-13T22:25:49.752Z,-8.30
2018-12-13T22:28:34.157Z,-8.40
2018-12-13T22:31:09.165Z,-8.30
2018-12-13T22:33:44.077Z,-8.30
2018-12-13T22:36:18.994Z,-8.40
2018-12-13T22:38:53.975Z,-8.40
2018-12-13T22:41:28.761Z,-8.40
2018-12-13T22:44:05.892Z,-8.40
2018-12-13T22:46:57.059Z,-8.40
2018-12-13T22:49:29.936Z,-8.40
2018-12-13T22:52:04.798Z,-8.40
2018-12-13T22:57:42.133Z,-8.30
2018-12-13T23:00:19.858Z,-8.30
2018-12-13T23:02:55.200Z,-8.30
2018-12-13T23:05:30.468Z,-8.20
2018-12-13T23:08:06.290Z,-8.20
2018-12-13T23:10:41.621Z,-8.20
2018-12-13T23:13:19.908Z,-8.20
2018-12-13T23:15:56.551Z,-8.10
2018-12-13T23:18:31.764Z,-8.10
2018-12-13T23:24:09.231Z,-8.10
2018-12-13T23:26:45.886Z,-8.10
2018-12-13T23:29:20.417Z,-8.00
2018-12-13T23:31:54.753Z,-8.00
2018-12-13T23:37:32.236Z,-7.90
2018-12-13T23:40:08.968Z,-7.90
2018-12-13T23:45:46.814Z,-7.90
2018-12-13T23:48:21.163Z,-7.90
2018-12-13T23:50:56.203Z,-7.80
2018-12-13T23:53:32.812Z,-7.90
2018-12-13T23:56:08.061Z,-7.90
2018-12-13T23:58:42.910Z,-7.90
